Golden Empress — VRHM9 — position and weather

sailwx.info

Track history (hours):
 
Tides and Currents Weather Stations Pressure Air Temp Water Temp Dewpoint Dewpoint Depression Visibility Wind Speed Wind Dir Waves Ship Positions

Golden Empress

Last reported at 2017-Oct-17 06:08 UTC. Time now 2017-Oct-17 08:14 UTC.
Position N 37°04' E 012°41'.

Length 229 m; draft 7.2 m.

Type: Cargo ship. MMSI: 477962300.

Date/timePositionNaut miles runAvg speedWind from/ knotsBaromVisibWave heightAir tempDewpointWater temp
2017-Oct-17 06:08N 37°04' E 012°41'313.3
2017-Oct-17 05:54N 37°03' E 012°45'513.2
2017-Oct-17 05:31N 37°01' E 012°51'713.1
2017-Oct-17 05:00N 36°58' E 012°59'713.4
2017-Oct-17 04:30N 36°56' E 013°07'713.5
2017-Oct-17 04:00N 36°54' E 013°14'713.3
2017-Oct-17 03:30N 36°52' E 013°22'713.1
2017-Oct-17 03:00N 36°49' E 013°30'713.2
2017-Oct-17 02:30N 36°47' E 013°37'713.4
2017-Oct-17 02:00N 36°44' E 013°45'713.1
2017-Oct-17 01:30N 36°42' E 013°53'713.2
2017-Oct-17 01:00N 36°39' E 014°00'713.2
2017-Oct-17 00:30N 36°37' E 014°08'612.7
2017-Oct-17 00:00N 36°34' E 014°15'612.6
2017-Oct-16 23:30N 36°32' E 014°23'612.8
2017-Oct-16 23:00N 36°30' E 014°30'612.6
2017-Oct-16 22:30N 36°28' E 014°38'812.8
2017-Oct-16 21:52N 36°28' E 014°48'812.9
2017-Oct-16 21:14N 36°28' E 014°58'513.1
2017-Oct-16 20:52N 36°28' E 015°04'1613.8
2017-Oct-16 19:42N 36°28' E 015°24'8413.9
2017-Oct-16 13:39N 36°26' E 017°09'313.6
2017-Oct-16 13:28N 36°26' E 017°12'713.5
2017-Oct-16 12:58N 36°26' E 017°20'1113.6
2017-Oct-16 12:10N 36°26' E 017°34'313.4
2017-Oct-16 11:58N 36°26' E 017°37'713.3
2017-Oct-16 11:25N 36°26' E 017°46'513.2
2017-Oct-16 11:00N 36°25' E 017°53'713.3
2017-Oct-16 10:30N 36°25' E 018°01'713.2
2017-Oct-16 10:00N 36°25' E 018°09'3713.1
2017-Oct-16 07:12N 36°25' E 018°55'212.8
2017-Oct-16 07:00N 36°25' E 018°58'612.7
2017-Oct-16 06:30N 36°25' E 019°06'714.0
2017-Oct-16 06:01N 36°25' E 019°14'714.0
2017-Oct-16 05:28N 36°25' E 019°24'713.7
2017-Oct-16 04:59N 36°25' E 019°32'613.4
2017-Oct-16 04:30N 36°25' E 019°40'713.5
2017-Oct-16 04:00N 36°24' E 019°48'713.2
2017-Oct-16 03:30N 36°23' E 019°57'1613.2
2017-Oct-16 02:16N 36°23' E 020°17'413.2
2017-Oct-16 02:00N 36°23' E 020°21'1113.3
2017-Oct-16 01:13N 36°23' E 020°34'313.2
2017-Oct-16 01:00N 36°23' E 020°38'20012.2
2017-Oct-15 08:36N 37°39' E 024°29'114.0
2017-Oct-15 08:30N 37°40' E 024°29'27111.4
2017-Oct-14 08:40N 40°52' E 028°37'213.7
2017-Oct-14 08:30N 40°53' E 028°40'1513.0
2017-Oct-14 07:19N 40°58' E 028°59'94 6.6
2017-Oct-13 17:09N 42°28' E 029°36'213.2
2017-Oct-13 16:59N 42°30' E 029°36'2613.4
2017-Oct-13 15:00N 42°56' E 029°46'713.7
2017-Oct-13 14:30N 43°02' E 029°49'713.7
2017-Oct-13 13:58N 43°09' E 029°52'613.8
2017-Oct-13 13:31N 43°15' E 029°55'713.7
2017-Oct-13 13:00N 43°22' E 029°57'713.6
2017-Oct-13 12:30N 43°28' E 029°60'913.6
2017-Oct-13 11:51N 43°37' E 030°03'513.9
2017-Oct-13 11:30N 43°41' E 030°06'713.7
2017-Oct-13 11:00N 43°48' E 030°09'713.7
2017-Oct-13 10:30N 43°55' E 030°11'713.6
2017-Oct-13 09:59N 44°02' E 030°13'613.5
2017-Oct-13 09:31N 44°08' E 030°15'713.3
2017-Oct-13 09:00N 44°14' E 030°19'713.4
2017-Oct-13 08:30N 44°20' E 030°21'713.3
2017-Oct-13 08:01N 44°27' E 030°24'713.2
2017-Oct-13 07:30N 44°33' E 030°26'713.3
2017-Oct-13 07:00N 44°40' E 030°29'713.3
2017-Oct-13 06:30N 44°46' E 030°31'713.3
2017-Oct-13 05:58N 44°53' E 030°34'613.1
2017-Oct-13 05:29N 44°59' E 030°36'613.1
2017-Oct-13 05:00N 45°05' E 030°40'713.3
2017-Oct-13 04:30N 45°11' E 030°42'813.4
2017-Oct-13 03:55N 45°19' E 030°45'513.4
2017-Oct-13 03:30N 45°24' E 030°48'713.3
2017-Oct-13 03:00N 45°30' E 030°51'713.3
2017-Oct-13 02:30N 45°37' E 030°54'713.2
2017-Oct-13 02:00N 45°43' E 030°56'913.2
2017-Oct-13 01:21N 45°51' E 030°59'413.2
2017-Oct-13 01:00N 45°56' E 031°02'713.2
2017-Oct-13 00:31N 46°02' E 031°04'611.9
2017-Oct-13 00:01N 46°08' E 031°03'713.3
2017-Oct-12 23:27N 46°13' E 030°56'511.8
2017-Oct-12 23:01N 46°18' E 030°55'713.3
2017-Oct-12 22:30N 46°25' E 030°55'613.1
2017-Oct-12 22:00N 46°32' E 030°55'4 8.7
2017-Oct-12 21:30N 46°34' E 031°00'3 6.9
2017-Oct-12 21:00N 46°37' E 031°01'2 3.7
2017-Oct-12 20:30N 46°39' E 031°01'0 0.0
2017-Oct-12 19:57N 46°39' E 031°01'0 0.0
2017-Oct-12 19:21N 46°39' E 031°01'0 0.0
2017-Oct-12 18:51N 46°39' E 031°01'0 0.0
2017-Oct-12 18:30N 46°39' E 031°01'0 0.0
2017-Oct-12 18:00N 46°39' E 031°01'0 0.0
2017-Oct-12 17:27N 46°39' E 031°01'  
2017-Oct-09 07:56N 46°34' E 031°01'3 0.1
2017-Oct-08 08:43N 46°34' E 031°05'0 0.0
2017-Oct-08 08:30N 46°34' E 031°05'  
Track history (hours):
 
Tides and Currents Weather Stations Pressure Air Temp Water Temp Dewpoint Dewpoint Depression Visibility Wind Speed Wind Dir Waves Ship Positions

Golden Empress

Last reported at 2017-Oct-17 06:08 UTC. Time now 2017-Oct-17 08:14 UTC.
Position N 37°04' E 012°41'.

Length 229 m; draft 7.2 m.

Type: Cargo ship. MMSI: 477962300.

Date/timePositionNaut miles runAvg speedWind from/ knotsBaromVisibWave heightAir tempDewpointWater temp
2017-Oct-17 06:08N 37°04' E 012°41'313.3
2017-Oct-17 05:54N 37°03' E 012°45'513.2
2017-Oct-17 05:31N 37°01' E 012°51'713.1
2017-Oct-17 05:00N 36°58' E 012°59'713.4
2017-Oct-17 04:30N 36°56' E 013°07'713.5
2017-Oct-17 04:00N 36°54' E 013°14'713.3
2017-Oct-17 03:30N 36°52' E 013°22'713.1
2017-Oct-17 03:00N 36°49' E 013°30'713.2
2017-Oct-17 02:30N 36°47' E 013°37'713.4
2017-Oct-17 02:00N 36°44' E 013°45'713.1
2017-Oct-17 01:30N 36°42' E 013°53'713.2
2017-Oct-17 01:00N 36°39' E 014°00'713.2
2017-Oct-17 00:30N 36°37' E 014°08'612.7
2017-Oct-17 00:00N 36°34' E 014°15'612.6
2017-Oct-16 23:30N 36°32' E 014°23'612.8
2017-Oct-16 23:00N 36°30' E 014°30'612.6
2017-Oct-16 22:30N 36°28' E 014°38'812.8
2017-Oct-16 21:52N 36°28' E 014°48'812.9
2017-Oct-16 21:14N 36°28' E 014°58'513.1
2017-Oct-16 20:52N 36°28' E 015°04'1613.8
2017-Oct-16 19:42N 36°28' E 015°24'8413.9
2017-Oct-16 13:39N 36°26' E 017°09'313.6
2017-Oct-16 13:28N 36°26' E 017°12'713.5
2017-Oct-16 12:58N 36°26' E 017°20'1113.6
2017-Oct-16 12:10N 36°26' E 017°34'313.4
2017-Oct-16 11:58N 36°26' E 017°37'713.3
2017-Oct-16 11:25N 36°26' E 017°46'513.2
2017-Oct-16 11:00N 36°25' E 017°53'713.3
2017-Oct-16 10:30N 36°25' E 018°01'713.2
2017-Oct-16 10:00N 36°25' E 018°09'3713.1
2017-Oct-16 07:12N 36°25' E 018°55'212.8
2017-Oct-16 07:00N 36°25' E 018°58'612.7
2017-Oct-16 06:30N 36°25' E 019°06'714.0
2017-Oct-16 06:01N 36°25' E 019°14'714.0
2017-Oct-16 05:28N 36°25' E 019°24'713.7
2017-Oct-16 04:59N 36°25' E 019°32'613.4
2017-Oct-16 04:30N 36°25' E 019°40'713.5
2017-Oct-16 04:00N 36°24' E 019°48'713.2
2017-Oct-16 03:30N 36°23' E 019°57'1613.2
2017-Oct-16 02:16N 36°23' E 020°17'413.2
2017-Oct-16 02:00N 36°23' E 020°21'1113.3
2017-Oct-16 01:13N 36°23' E 020°34'313.2
2017-Oct-16 01:00N 36°23' E 020°38'20012.2
2017-Oct-15 08:36N 37°39' E 024°29'114.0
2017-Oct-15 08:30N 37°40' E 024°29'27111.4
2017-Oct-14 08:40N 40°52' E 028°37'213.7
2017-Oct-14 08:30N 40°53' E 028°40'1513.0
2017-Oct-14 07:19N 40°58' E 028°59'94 6.6
2017-Oct-13 17:09N 42°28' E 029°36'213.2
2017-Oct-13 16:59N 42°30' E 029°36'2613.4
2017-Oct-13 15:00N 42°56' E 029°46'713.7
2017-Oct-13 14:30N 43°02' E 029°49'713.7
2017-Oct-13 13:58N 43°09' E 029°52'613.8
2017-Oct-13 13:31N 43°15' E 029°55'713.7
2017-Oct-13 13:00N 43°22' E 029°57'713.6
2017-Oct-13 12:30N 43°28' E 029°60'913.6
2017-Oct-13 11:51N 43°37' E 030°03'513.9
2017-Oct-13 11:30N 43°41' E 030°06'713.7
2017-Oct-13 11:00N 43°48' E 030°09'713.7
2017-Oct-13 10:30N 43°55' E 030°11'713.6
2017-Oct-13 09:59N 44°02' E 030°13'613.5
2017-Oct-13 09:31N 44°08' E 030°15'713.3
2017-Oct-13 09:00N 44°14' E 030°19'713.4
2017-Oct-13 08:30N 44°20' E 030°21'713.3
2017-Oct-13 08:01N 44°27' E 030°24'713.2
2017-Oct-13 07:30N 44°33' E 030°26'713.3
2017-Oct-13 07:00N 44°40' E 030°29'713.3
2017-Oct-13 06:30N 44°46' E 030°31'713.3
2017-Oct-13 05:58N 44°53' E 030°34'613.1
2017-Oct-13 05:29N 44°59' E 030°36'613.1
2017-Oct-13 05:00N 45°05' E 030°40'713.3
2017-Oct-13 04:30N 45°11' E 030°42'813.4
2017-Oct-13 03:55N 45°19' E 030°45'513.4
2017-Oct-13 03:30N 45°24' E 030°48'713.3
2017-Oct-13 03:00N 45°30' E 030°51'713.3
2017-Oct-13 02:30N 45°37' E 030°54'713.2
2017-Oct-13 02:00N 45°43' E 030°56'913.2
2017-Oct-13 01:21N 45°51' E 030°59'413.2
2017-Oct-13 01:00N 45°56' E 031°02'713.2
2017-Oct-13 00:31N 46°02' E 031°04'611.9
2017-Oct-13 00:01N 46°08' E 031°03'713.3
2017-Oct-12 23:27N 46°13' E 030°56'511.8
2017-Oct-12 23:01N 46°18' E 030°55'713.3
2017-Oct-12 22:30N 46°25' E 030°55'613.1
2017-Oct-12 22:00N 46°32' E 030°55'4 8.7
2017-Oct-12 21:30N 46°34' E 031°00'3 6.9
2017-Oct-12 21:00N 46°37' E 031°01'2 3.7
2017-Oct-12 20:30N 46°39' E 031°01'0 0.0
2017-Oct-12 19:57N 46°39' E 031°01'0 0.0
2017-Oct-12 19:21N 46°39' E 031°01'0 0.0
2017-Oct-12 18:51N 46°39' E 031°01'0 0.0
2017-Oct-12 18:30N 46°39' E 031°01'0 0.0
2017-Oct-12 18:00N 46°39' E 031°01'0 0.0
2017-Oct-12 17:27N 46°39' E 031°01'  
2017-Oct-09 07:56N 46°34' E 031°01'3 0.1
2017-Oct-08 08:43N 46°34' E 031°05'0 0.0
2017-Oct-08 08:30N 46°34' E 031°05'  

Dump ship's entire track history